LTFM Airport Information

Runway Information
Airport Frequencies
Airport Navaids
Airport Weather Information & NOTAM
ADDS - METARS form results

(1549 UTC 21 November 2018)
Data provider http://aviationweather.gov/metar/data/
 
METAR text: LTFM 211520Z 10007KT 7000 SCT004 BKN020 14/13 Q1011 RESHRA
Conditions at: LTFM observed 1520 UTC 21 November 2018
Temperature: 14.0°C (57°F)
Dewpoint: 13.0°C (55°F) [RH = 94%]
Pressure (altimeter): 29.85 inches Hg (1011.0 mb)
Winds: from the E (100 degrees) at 8 MPH (7 knots; 3.6 m/s)
Visibility: 4 miles ( 7 km)
Ceiling: 2000 feet AGL
Clouds: scattered clouds at 400 feet AGL
broken clouds at 2000 feet AGL
Weather: no significant weather observed at this time

METAR text: LTFM 211450Z 09007KT 5000 -SHRA BR SCT004 BKN020 14/13 Q1011
Conditions at: LTFM observed 1450 UTC 21 November 2018
Temperature: 14.0°C (57°F)
Dewpoint: 13.0°C (55°F) [RH = 94%]
Pressure (altimeter): 29.85 inches Hg (1011.0 mb)
Winds: from the E (90 degrees) at 8 MPH (7 knots; 3.6 m/s)
Visibility: 3 miles ( 5 km)
Ceiling: 2000 feet AGL
Clouds: scattered clouds at 400 feet AGL
broken clouds at 2000 feet AGL
Weather: -SHRA BR  (light rain showers, mist)

Forecast for: LTFM
Text: TAF LTFM 211040Z 2112/2212 07010KT 7000 -SHRA SCT008 BKN020
Forecast period: 1200 UTC 21 November 2018 to 0200 UTC 22 November 2018
Forecast type: FROM: standard forecast or significant change
Winds: from the ENE (70 degrees) at 12 MPH (10 knots; 5.1 m/s)
Visibility: 4 miles (7 km)
Ceiling: 2000 feet AGL
Clouds: scattered clouds at 800 feet AGL
broken clouds at 2000 feet AGL
Weather: -SHRA  (light rain showers)
Text: TEMPO 2115/2119 4000 SHRA SCT017TCU BKN025
Forecast period: 1500 to 1900 UTC 21 November 2018
Forecast type: TEMPORARY: The following changes expected for less than half the time period
Visibility: 2.49 miles (4.01 km)
Ceiling: 2500 feet AGL
Clouds: scattered clouds at 1700 feet AGL
broken clouds at 2500 feet AGL
Weather: SHRA  (rain showers)
Text: BECMG 2202/2205 03020KT
Forecast period: 0200 to 1200 UTC 22 November 2018
Forecast type: BECOMING: Conditions expected to become as follows by 0500 UTC 22 November 2018
Winds: from the NNE (30 degrees) at 23 MPH (20 knots; 10.3 m/s)
Visibility: 4 miles (7 km)
Ceiling: 2000 feet AGL
Clouds: scattered clouds at 800 feet AGL
broken clouds at 2000 feet AGL
Weather: -SHRA  (light rain showers)
Text: TEMPO 2208/2212 4000 SHRA SCT017TCU BKN025
Forecast period: 0800 to 1200 UTC 22 November 2018
Forecast type: TEMPORARY: The following changes expected for less than half the time period
Visibility: 2.49 miles (4.01 km)
Ceiling: 2500 feet AGL
Clouds: scattered clouds at 1700 feet AGL
broken clouds at 2500 feet AGL
Weather: SHRA  (rain showers)